createdAt,value
2019-01-09T00:00:22.662Z,2.30
2019-01-09T00:02:51.850Z,2.40
2019-01-09T00:05:28.329Z,2.50
2019-01-09T00:07:52.063Z,2.70
2019-01-09T00:10:21.256Z,2.23
2019-01-09T00:12:50.548Z,2.40
2019-01-09T00:15:20.501Z,3.30
2019-01-09T00:17:49.805Z,2.87
2019-01-09T00:20:19.059Z,3.77
2019-01-09T00:22:48.343Z,4.10
2019-01-09T00:25:17.551Z,3.37
2019-01-09T00:27:46.740Z,2.80
2019-01-09T00:30:15.983Z,3.10
2019-01-09T00:32:45.315Z,2.50
2019-01-09T00:35:14.478Z,2.50
2019-01-09T00:37:43.755Z,2.70
2019-01-09T00:40:12.961Z,2.67
2019-01-09T00:42:42.151Z,2.17
2019-01-09T00:45:11.483Z,2.90
2019-01-09T00:47:40.814Z,2.40
2019-01-09T00:50:12.517Z,2.20
2019-01-09T00:52:59.902Z,1.80
2019-01-09T00:55:29.154Z,1.93
2019-01-09T00:57:58.633Z,2.20
2019-01-09T01:00:28.929Z,2.23
2019-01-09T01:03:13.217Z,2.00
2019-01-09T01:05:54.271Z,1.27
2019-01-09T01:08:55.196Z,1.07
2019-01-09T01:11:53.255Z,0.80
2019-01-09T01:14:43.046Z,0.80
2019-01-09T01:17:39.305Z,1.03
2019-01-09T01:20:17.277Z,0.90
2019-01-09T01:23:05.817Z,1.33
2019-01-09T01:25:54.793Z,1.83
2019-01-09T01:28:36.002Z,2.30
2019-01-09T01:31:24.689Z,2.20
2019-01-09T01:33:56.947Z,2.20
2019-01-09T01:36:31.574Z,1.70
2019-01-09T01:39:21.148Z,1.47
2019-01-09T01:41:58.906Z,2.20
2019-01-09T01:44:39.742Z,1.67
2019-01-09T01:47:30.688Z,1.33
2019-01-09T01:50:23.541Z,2.27
2019-01-09T01:53:04.573Z,1.73
2019-01-09T01:56:05.286Z,2.20
2019-01-09T01:59:01.952Z,1.50
2019-01-09T02:01:40.278Z,1.93
2019-01-09T02:04:15.086Z,2.20
2019-01-09T02:07:08.023Z,1.63
2019-01-09T02:10:05.902Z,1.67
2019-01-09T02:12:50.202Z,1.27
2019-01-09T02:15:22.432Z,1.30
2019-01-09T02:17:57.435Z,2.03
2019-01-09T02:20:45.993Z,2.20
2019-01-09T02:23:33.267Z,2.50
2019-01-09T02:26:05.485Z,1.83
2019-01-09T02:28:37.724Z,1.90
2019-01-09T02:31:19.156Z,1.87
2019-01-09T02:33:48.342Z,2.33
2019-01-09T02:36:17.498Z,3.03
2019-01-09T02:38:46.678Z,2.50
2019-01-09T02:41:15.855Z,3.10
2019-01-09T02:43:45.048Z,2.67
2019-01-09T02:46:14.229Z,3.47
2019-01-09T02:48:43.420Z,2.03
2019-01-09T02:51:12.585Z,3.43
2019-01-09T02:53:41.797Z,2.33
2019-01-09T02:56:10.986Z,1.83
2019-01-09T02:58:40.156Z,1.87
2019-01-09T03:01:09.257Z,2.20
2019-01-09T03:03:38.458Z,2.20
2019-01-09T03:06:07.623Z,2.30
2019-01-09T03:08:36.791Z,1.97
2019-01-09T03:11:05.998Z,2.80
2019-01-09T03:13:35.162Z,2.80
2019-01-09T03:16:04.341Z,3.20
2019-01-09T03:18:33.539Z,3.63
2019-01-09T03:21:02.851Z,3.13
2019-01-09T03:23:32.038Z,3.00
2019-01-09T03:26:01.295Z,3.60
2019-01-09T03:28:30.466Z,3.27
2019-01-09T03:30:59.639Z,3.80
2019-01-09T03:33:28.853Z,3.23
2019-01-09T03:35:58.047Z,3.50
2019-01-09T03:38:27.223Z,3.20
2019-01-09T03:40:56.436Z,3.63
2019-01-09T03:43:25.625Z,4.40
2019-01-09T03:45:54.792Z,3.03
2019-01-09T03:48:23.992Z,4.17
2019-01-09T03:50:53.174Z,4.30
2019-01-09T03:53:22.349Z,3.80
2019-01-09T03:55:51.547Z,4.00
2019-01-09T03:58:20.731Z,3.63
2019-01-09T04:00:49.939Z,4.03
2019-01-09T04:03:19.103Z,5.10
2019-01-09T04:05:48.292Z,3.37
2019-01-09T04:08:17.502Z,3.97
2019-01-09T04:10:46.659Z,3.70
2019-01-09T04:13:15.844Z,5.07
2019-01-09T04:15:45.033Z,2.37
2019-01-09T04:18:14.274Z,3.37
2019-01-09T04:20:43.443Z,2.90
2019-01-09T04:23:12.621Z,3.80
2019-01-09T04:25:41.809Z,2.23
2019-01-09T04:28:11.017Z,2.10
2019-01-09T04:30:40.173Z,2.10
2019-01-09T04:33:09.354Z,2.47
2019-01-09T04:35:38.580Z,1.83
2019-01-09T04:38:07.747Z,2.20
2019-01-09T04:40:36.841Z,3.30
2019-01-09T04:43:06.044Z,2.83
2019-01-09T04:45:35.216Z,2.00
2019-01-09T04:48:04.399Z,2.57
2019-01-09T04:50:33.593Z,2.97
2019-01-09T04:53:02.797Z,2.57
2019-01-09T04:55:31.933Z,2.53
2019-01-09T04:58:01.119Z,2.57
2019-01-09T05:00:30.314Z,2.20
2019-01-09T05:02:59.508Z,3.13
2019-01-09T05:05:28.680Z,2.70
2019-01-09T05:07:57.913Z,2.87
2019-01-09T05:10:27.071Z,3.60
2019-01-09T05:12:56.249Z,3.83
2019-01-09T05:15:25.454Z,3.17
2019-01-09T05:17:54.627Z,3.60
2019-01-09T05:20:23.789Z,3.10
2019-01-09T05:22:52.998Z,3.20
2019-01-09T05:25:22.172Z,3.97
2019-01-09T05:27:51.349Z,3.23
2019-01-09T05:30:20.584Z,3.13
2019-01-09T05:32:49.765Z,2.60
2019-01-09T05:35:18.924Z,2.73
2019-01-09T05:37:48.109Z,2.47
2019-01-09T05:40:17.288Z,1.93
2019-01-09T05:42:46.576Z,2.00
2019-01-09T05:45:15.761Z,2.23
2019-01-09T05:47:44.940Z,2.03
2019-01-09T05:50:14.108Z,1.70
2019-01-09T05:52:43.301Z,1.90
2019-01-09T05:55:12.467Z,2.00
2019-01-09T05:57:41.705Z,2.47
2019-01-09T06:00:10.901Z,2.50
2019-01-09T06:02:40.090Z,2.37
2019-01-09T06:05:09.273Z,2.10
2019-01-09T06:07:38.388Z,2.83
2019-01-09T06:10:08.153Z,1.87
2019-01-09T06:12:37.337Z,2.40
2019-01-09T06:15:07.270Z,2.17
2019-01-09T06:17:36.467Z,2.70
2019-01-09T06:20:07.290Z,2.20
2019-01-09T06:22:36.485Z,2.80
2019-01-09T06:25:06.322Z,2.60
2019-01-09T06:27:35.491Z,2.33
2019-01-09T06:30:05.947Z,3.03
2019-01-09T06:32:35.121Z,2.50
2019-01-09T06:35:04.431Z,2.00
2019-01-09T06:37:33.621Z,2.67
2019-01-09T06:40:02.918Z,2.43
2019-01-09T06:42:32.075Z,2.43
2019-01-09T06:45:01.312Z,2.97
2019-01-09T06:47:30.457Z,2.57
2019-01-09T06:49:59.687Z,2.98
2019-01-09T06:52:28.807Z,3.00
2019-01-09T06:54:58.047Z,2.80
2019-01-09T06:57:27.253Z,3.67
2019-01-09T06:59:56.449Z,2.80
2019-01-09T07:02:25.632Z,2.27
2019-01-09T07:04:54.835Z,2.83
2019-01-09T07:07:24.033Z,3.13
2019-01-09T07:09:53.213Z,3.17
2019-01-09T07:12:23.417Z,3.40
2019-01-09T07:14:52.632Z,3.40
2019-01-09T07:17:21.872Z,3.20
2019-01-09T07:19:51.199Z,3.17
2019-01-09T07:22:20.477Z,4.00
2019-01-09T07:24:49.651Z,3.37
2019-01-09T07:27:19.143Z,3.20
2019-01-09T07:29:48.507Z,3.87
2019-01-09T07:32:18.625Z,3.60
2019-01-09T07:34:47.867Z,3.90
2019-01-09T07:37:17.079Z,4.50
2019-01-09T07:39:46.295Z,3.30
2019-01-09T07:42:15.733Z,4.53
2019-01-09T07:44:44.841Z,4.27
2019-01-09T07:47:14.019Z,4.23
2019-01-09T07:49:43.188Z,3.53
2019-01-09T07:52:12.398Z,4.90
2019-01-09T07:54:41.583Z,4.83
2019-01-09T07:57:10.762Z,4.90
2019-01-09T07:59:39.994Z,3.57
2019-01-09T08:02:09.156Z,3.23
2019-01-09T08:04:38.346Z,3.92
2019-01-09T08:07:07.620Z,2.60
2019-01-09T08:09:36.818Z,2.67
2019-01-09T08:12:06.002Z,2.05
2019-01-09T08:14:35.199Z,1.98
2019-01-09T08:17:04.471Z,1.77
2019-01-09T08:19:33.648Z,2.50
2019-01-09T08:22:02.934Z,1.67
2019-01-09T08:24:32.102Z,2.10
2019-01-09T08:27:01.279Z,2.27
2019-01-09T08:29:30.477Z,2.92
2019-01-09T08:31:59.685Z,2.70
2019-01-09T08:34:28.861Z,2.67
2019-01-09T08:36:58.036Z,3.08
2019-01-09T08:39:27.615Z,2.40
2019-01-09T08:41:57.181Z,3.35
2019-01-09T08:44:26.359Z,3.02
2019-01-09T08:46:55.585Z,2.67
2019-01-09T08:49:24.856Z,3.15
2019-01-09T08:51:54.054Z,3.73
2019-01-09T08:54:23.257Z,3.57
2019-01-09T08:56:52.440Z,2.63
2019-01-09T08:59:21.604Z,3.33
2019-01-09T09:01:50.816Z,2.80
2019-01-09T09:04:20.022Z,3.17
2019-01-09T09:06:49.193Z,3.60
2019-01-09T09:09:18.539Z,4.50
2019-01-09T09:11:47.714Z,3.80
2019-01-09T09:14:16.900Z,3.77
2019-01-09T09:16:46.088Z,3.67
2019-01-09T09:19:15.847Z,3.93
2019-01-09T09:21:45.090Z,4.87
2019-01-09T09:24:14.303Z,3.80
2019-01-09T09:26:43.422Z,3.50
2019-01-09T09:29:12.755Z,4.50
2019-01-09T09:31:41.959Z,4.23
2019-01-09T09:34:11.161Z,5.60
2019-01-09T09:36:40.384Z,3.90
2019-01-09T09:39:11.112Z,4.03
2019-01-09T09:41:40.390Z,5.17
2019-01-09T09:44:09.566Z,4.47
2019-01-09T09:46:38.745Z,4.13
2019-01-09T09:49:07.930Z,5.50
2019-01-09T09:51:37.110Z,4.53
2019-01-09T09:54:06.308Z,4.83
2019-01-09T09:56:35.700Z,5.83
2019-01-09T09:59:04.877Z,3.97
2019-01-09T10:01:34.043Z,4.40
2019-01-09T10:04:03.242Z,5.70
2019-01-09T10:06:32.418Z,5.53
2019-01-09T10:09:01.580Z,4.97
2019-01-09T10:11:30.774Z,4.43
2019-01-09T10:13:59.940Z,5.67
2019-01-09T10:16:29.109Z,3.90
2019-01-09T10:18:58.319Z,3.90
2019-01-09T10:21:27.559Z,5.07
2019-01-09T10:23:56.723Z,4.60
2019-01-09T10:26:25.913Z,5.20
2019-01-09T10:28:55.111Z,3.73
2019-01-09T10:31:24.277Z,4.20
2019-01-09T10:33:53.478Z,4.17
2019-01-09T10:36:23.582Z,3.40
2019-01-09T10:38:52.850Z,4.40
2019-01-09T10:41:22.038Z,4.63
2019-01-09T10:43:51.834Z,4.53
2019-01-09T10:46:21.021Z,4.00
2019-01-09T10:48:50.200Z,4.07
2019-01-09T10:51:19.422Z,3.90
2019-01-09T10:53:48.539Z,5.10
2019-01-09T10:56:17.715Z,3.37
2019-01-09T10:58:46.935Z,3.63
2019-01-09T11:01:16.129Z,3.63
2019-01-09T11:03:45.303Z,3.73
2019-01-09T11:06:14.659Z,4.07
2019-01-09T11:08:47.052Z,5.10
2019-01-09T11:11:14.692Z,4.40
2019-01-09T11:13:43.878Z,4.43
2019-01-09T11:16:13.062Z,4.30
2019-01-09T11:18:42.227Z,4.67
2019-01-09T11:21:11.510Z,3.73
2019-01-09T11:23:40.676Z,3.07
2019-01-09T11:26:09.916Z,4.17
2019-01-09T11:28:39.110Z,3.27
2019-01-09T11:31:08.307Z,4.23
2019-01-09T11:33:37.485Z,4.33
2019-01-09T11:36:06.688Z,4.57
2019-01-09T11:38:55.870Z,3.80
2019-01-09T11:41:25.220Z,4.73
2019-01-09T11:43:54.400Z,3.90
2019-01-09T11:46:24.548Z,3.47
2019-01-09T11:48:53.731Z,3.37
2019-01-09T11:51:22.920Z,3.67
2019-01-09T11:53:52.145Z,3.70
2019-01-09T11:56:21.314Z,3.27
2019-01-09T11:58:50.502Z,3.73
2019-01-09T12:01:19.700Z,3.77
2019-01-09T12:03:48.900Z,3.40
2019-01-09T12:06:18.068Z,4.53
2019-01-09T12:08:49.266Z,3.90
2019-01-09T12:11:18.150Z,4.03
2019-01-09T12:13:47.329Z,4.13
2019-01-09T12:16:16.556Z,3.80
2019-01-09T12:18:45.787Z,3.73
2019-01-09T12:21:16.673Z,4.83
2019-01-09T12:23:45.846Z,4.43
2019-01-09T12:26:15.048Z,4.33
2019-01-09T12:28:53.230Z,4.40
2019-01-09T12:31:15.132Z,4.23
2019-01-09T12:33:44.346Z,3.70
2019-01-09T12:36:15.329Z,4.07
2019-01-09T12:38:44.530Z,4.40
2019-01-09T12:41:13.729Z,4.90
2019-01-09T12:43:42.904Z,4.27
2019-01-09T12:46:12.190Z,3.73
2019-01-09T12:48:41.366Z,3.33
2019-01-09T12:51:10.553Z,3.37
2019-01-09T12:53:40.035Z,4.43
2019-01-09T12:56:09.200Z,3.37
2019-01-09T12:58:38.386Z,3.73
2019-01-09T13:01:07.611Z,3.63
2019-01-09T13:03:36.801Z,3.67
2019-01-09T13:06:06.421Z,3.73
2019-01-09T13:08:35.623Z,3.77
2019-01-09T13:11:05.045Z,4.37
2019-01-09T13:13:34.211Z,3.40
2019-01-09T13:16:03.422Z,4.43
2019-01-09T13:18:32.618Z,3.30
2019-01-09T13:21:01.809Z,3.27
2019-01-09T13:23:31.016Z,2.70
2019-01-09T13:26:00.205Z,3.50
2019-01-09T13:28:29.366Z,2.13
2019-01-09T13:30:58.676Z,4.10
2019-01-09T13:33:27.848Z,2.40
2019-01-09T13:35:57.036Z,5.00
2019-01-09T13:38:26.257Z,2.67
2019-01-09T13:40:55.436Z,2.60
2019-01-09T13:43:24.734Z,2.30
2019-01-09T13:45:53.902Z,2.47
2019-01-09T13:48:23.071Z,2.60
2019-01-09T13:50:52.280Z,1.97
2019-01-09T13:53:21.527Z,2.00
2019-01-09T13:55:50.713Z,2.40
2019-01-09T13:58:19.914Z,2.97
2019-01-09T14:00:49.158Z,1.90
2019-01-09T14:03:18.345Z,2.60
2019-01-09T14:05:47.545Z,2.73
2019-01-09T14:08:16.779Z,1.80
2019-01-09T14:10:45.969Z,2.07
2019-01-09T14:13:15.146Z,2.00
2019-01-09T14:15:44.320Z,2.03
2019-01-09T14:18:13.493Z,1.93
2019-01-09T14:20:42.678Z,1.97
2019-01-09T14:23:11.867Z,2.30
2019-01-09T14:25:41.031Z,1.40
2019-01-09T14:28:10.282Z,1.80
2019-01-09T14:30:39.415Z,2.13
2019-01-09T14:33:08.602Z,1.77
2019-01-09T14:35:37.800Z,1.50
2019-01-09T14:38:06.966Z,2.37
2019-01-09T14:40:37.319Z,2.13
2019-01-09T14:43:06.723Z,1.73
2019-01-09T14:45:35.898Z,1.90
2019-01-09T14:48:05.093Z,1.13
2019-01-09T14:50:34.284Z,2.07
2019-01-09T14:53:03.498Z,1.60
2019-01-09T14:55:32.671Z,1.73
2019-01-09T14:58:02.830Z,1.80
2019-01-09T15:00:32.086Z,1.70
2019-01-09T15:03:01.256Z,1.80
2019-01-09T15:05:30.455Z,1.90
2019-01-09T15:07:59.632Z,1.97
2019-01-09T15:10:31.487Z,2.10
2019-01-09T15:13:00.399Z,2.13
2019-01-09T15:15:29.591Z,2.07
2019-01-09T15:17:58.833Z,1.63
2019-01-09T15:20:28.195Z,1.70
2019-01-09T15:22:57.372Z,1.70
2019-01-09T15:25:26.686Z,1.93
2019-01-09T15:27:55.975Z,1.83
2019-01-09T15:30:27.757Z,1.90
2019-01-09T15:32:56.904Z,1.50
2019-01-09T15:35:26.188Z,1.57
2019-01-09T15:37:55.427Z,1.87
2019-01-09T15:40:26.674Z,2.03
2019-01-09T15:42:56.067Z,1.73
2019-01-09T15:45:25.579Z,1.23
2019-01-09T15:47:54.887Z,1.83
2019-01-09T15:50:26.124Z,2.00
2019-01-09T15:52:55.270Z,1.83
2019-01-09T15:55:24.442Z,2.00
2019-01-09T15:57:54.671Z,2.20
2019-01-09T16:00:29.630Z,2.07
2019-01-09T16:02:58.861Z,1.30
2019-01-09T16:05:28.051Z,2.03
2019-01-09T16:07:57.224Z,2.33
2019-01-09T16:10:26.856Z,2.87
2019-01-09T16:12:56.113Z,1.90
2019-01-09T16:15:25.291Z,1.97
2019-01-09T16:17:54.524Z,1.77
2019-01-09T16:20:24.008Z,1.50
2019-01-09T16:22:53.211Z,2.13
2019-01-09T16:25:22.455Z,1.97
2019-01-09T16:27:51.652Z,2.60
2019-01-09T16:30:34.283Z,2.03
2019-01-09T16:33:03.862Z,1.63
2019-01-09T16:35:35.271Z,2.07
2019-01-09T16:38:04.502Z,2.00
2019-01-09T16:40:33.787Z,2.10
2019-01-09T16:43:04.294Z,1.90
2019-01-09T16:45:34.384Z,2.17
2019-01-09T16:48:03.620Z,2.17
2019-01-09T16:50:33.747Z,1.97
2019-01-09T16:53:04.512Z,2.27
2019-01-09T16:55:33.700Z,1.90
2019-01-09T16:58:02.928Z,1.97
2019-01-09T17:00:40.098Z,3.07
2019-01-09T17:03:09.397Z,2.70
2019-01-09T17:05:39.857Z,2.30
2019-01-09T17:08:09.113Z,1.60
2019-01-09T17:10:38.324Z,2.17
2019-01-09T17:13:07.529Z,2.33
2019-01-09T17:15:36.708Z,1.90
2019-01-09T17:18:06.932Z,2.13
2019-01-09T17:20:36.114Z,2.00
2019-01-09T17:23:05.291Z,2.53
2019-01-09T17:25:34.482Z,2.10
2019-01-09T17:28:04.508Z,1.80
2019-01-09T17:30:33.674Z,2.60
2019-01-09T17:33:02.861Z,2.07
2019-01-09T17:35:32.034Z,2.50
2019-01-09T17:38:01.201Z,2.17
2019-01-09T17:40:30.387Z,1.87
2019-01-09T17:42:59.582Z,2.87
2019-01-09T17:45:28.777Z,2.03
2019-01-09T17:47:58.419Z,2.40
2019-01-09T17:50:32.974Z,2.47
2019-01-09T17:53:02.181Z,1.93
2019-01-09T17:55:31.468Z,2.77
2019-01-09T17:58:00.667Z,2.10
2019-01-09T18:00:40.878Z,2.10
2019-01-09T18:03:10.146Z,1.77
2019-01-09T18:05:39.394Z,2.37
2019-01-09T18:08:10.983Z,1.97
2019-01-09T18:10:39.543Z,2.33
2019-01-09T18:13:09.104Z,2.07
2019-01-09T18:15:38.296Z,1.57
2019-01-09T18:18:07.466Z,2.63
2019-01-09T18:20:36.637Z,2.20
2019-01-09T18:23:05.968Z,2.37
2019-01-09T18:25:35.076Z,2.27
2019-01-09T18:28:04.261Z,2.13
2019-01-09T18:30:48.243Z,2.37
2019-01-09T18:33:23.136Z,2.43
2019-01-09T18:36:04.423Z,2.30
2019-01-09T18:38:39.222Z,2.57
2019-01-09T18:41:11.494Z,2.40
2019-01-09T18:43:49.534Z,1.90
2019-01-09T18:46:39.951Z,2.47
2019-01-09T18:49:36.284Z,2.30
2019-01-09T18:52:20.556Z,2.73
2019-01-09T18:54:49.678Z,2.60
2019-01-09T18:57:37.104Z,2.25
2019-01-09T19:00:26.560Z,2.67
2019-01-09T19:02:55.750Z,1.97
2019-01-09T19:05:25.060Z,2.13
2019-01-09T19:07:54.250Z,2.23
2019-01-09T19:10:23.800Z,2.37
2019-01-09T19:12:53.104Z,2.17
2019-01-09T19:15:22.411Z,2.47
2019-01-09T19:17:51.641Z,2.37
2019-01-09T19:20:20.914Z,2.20
2019-01-09T19:22:50.582Z,2.60
2019-01-09T19:25:19.856Z,2.20
2019-01-09T19:27:49.182Z,2.47
2019-01-09T19:30:27.259Z,2.45
2019-01-09T19:32:56.523Z,3.47
2019-01-09T19:35:25.837Z,3.17
2019-01-09T19:37:55.047Z,2.50
2019-01-09T19:40:24.595Z,2.35
2019-01-09T19:42:54.219Z,3.00
2019-01-09T19:45:23.414Z,2.20
2019-01-09T19:47:52.594Z,2.33
2019-01-09T19:50:24.766Z,2.80
2019-01-09T19:52:53.952Z,2.83
2019-01-09T19:55:24.674Z,2.33
2019-01-09T19:57:53.993Z,2.70
2019-01-09T20:00:26.802Z,2.53
2019-01-09T20:02:56.316Z,2.57
2019-01-09T20:05:25.630Z,3.27
2019-01-09T20:07:54.833Z,2.13
2019-01-09T20:10:26.118Z,2.40
2019-01-09T20:12:55.439Z,2.60
2019-01-09T20:15:24.818Z,2.47
2019-01-09T20:17:54.018Z,3.00
2019-01-09T20:20:23.250Z,2.77
2019-01-09T20:22:52.458Z,2.70
2019-01-09T20:25:21.667Z,2.37
2019-01-09T20:27:51.002Z,2.10
2019-01-09T20:30:25.992Z,3.40
2019-01-09T20:32:55.182Z,2.67
2019-01-09T20:35:26.387Z,2.57
2019-01-09T20:37:55.617Z,2.98
2019-01-09T20:40:30.687Z,2.67
2019-01-09T20:42:59.922Z,2.30
2019-01-09T20:45:29.069Z,2.83
2019-01-09T20:47:58.247Z,2.33
2019-01-09T20:50:28.253Z,2.83
2019-01-09T20:52:57.570Z,3.33
2019-01-09T20:55:27.251Z,2.45
2019-01-09T20:57:56.511Z,3.47
2019-01-09T21:00:27.691Z,2.70
2019-01-09T21:02:59.264Z,2.47
2019-01-09T21:05:32.594Z,2.95
2019-01-09T21:08:01.815Z,2.50
2019-01-09T21:10:31.012Z,2.40
2019-01-09T21:13:00.266Z,2.95
2019-01-09T21:15:29.472Z,2.27
2019-01-09T21:17:58.666Z,2.40
2019-01-09T21:20:27.850Z,2.58
2019-01-09T21:22:57.063Z,2.40
2019-01-09T21:25:26.363Z,2.77
2019-01-09T21:27:55.587Z,2.80
2019-01-09T21:30:26.290Z,2.12
2019-01-09T21:32:56.457Z,3.05
2019-01-09T21:35:25.746Z,2.37
2019-01-09T21:37:54.886Z,2.47
2019-01-09T21:40:26.437Z,2.52
2019-01-09T21:42:55.689Z,2.30
2019-01-09T21:45:24.891Z,2.37
2019-01-09T21:47:54.551Z,2.72
2019-01-09T21:50:25.178Z,2.30
2019-01-09T21:52:54.489Z,2.12
2019-01-09T21:55:23.755Z,2.20
2019-01-09T21:57:52.945Z,2.30
2019-01-09T22:00:26.453Z,2.87
2019-01-09T22:02:55.741Z,2.10
2019-01-09T22:05:25.190Z,2.37
2019-01-09T22:07:54.515Z,2.65
2019-01-09T22:10:29.420Z,2.90
2019-01-09T22:12:59.046Z,2.62
2019-01-09T22:15:28.276Z,2.75
2019-01-09T22:17:57.576Z,2.85
2019-01-09T22:20:26.840Z,2.92
2019-01-09T22:22:56.092Z,2.65
2019-01-09T22:25:25.305Z,3.00
2019-01-09T22:27:54.489Z,2.72
2019-01-09T22:30:26.166Z,2.50
2019-01-09T22:32:55.430Z,2.72
2019-01-09T22:35:24.740Z,3.47
2019-01-09T22:37:53.965Z,2.65
2019-01-09T22:40:32.096Z,2.37
2019-01-09T22:43:01.279Z,2.50
2019-01-09T22:45:30.463Z,2.83
2019-01-09T22:47:59.753Z,2.47
2019-01-09T22:50:28.926Z,1.80
2019-01-09T22:52:58.191Z,2.40
2019-01-09T22:55:27.457Z,2.77
2019-01-09T22:57:56.633Z,3.25
2019-01-09T23:00:32.676Z,2.67
2019-01-09T23:03:10.117Z,2.37
2019-01-09T23:05:36.202Z,2.12
2019-01-09T23:08:05.644Z,2.10
2019-01-09T23:10:35.861Z,1.70
2019-01-09T23:13:05.217Z,2.25
2019-01-09T23:15:34.503Z,2.30
2019-01-09T23:18:03.746Z,2.67
2019-01-09T23:20:32.971Z,2.05
2019-01-09T23:23:02.172Z,1.85
2019-01-09T23:25:31.427Z,2.30
2019-01-09T23:28:00.621Z,3.02
2019-01-09T23:30:30.887Z,2.40
2019-01-09T23:33:01.197Z,3.42
2019-01-09T23:35:30.715Z,3.35
2019-01-09T23:38:00.084Z,3.35
2019-01-09T23:40:29.253Z,2.95
2019-01-09T23:42:59.425Z,3.00
2019-01-09T23:45:28.631Z,2.72
2019-01-09T23:47:57.810Z,3.67
2019-01-09T23:50:27.008Z,2.95
2019-01-09T23:52:56.216Z,2.85
2019-01-09T23:55:25.382Z,2.83
2019-01-09T23:57:54.571Z,2.33
